sensor_id;sensor_type;location;lat;lon;timestamp;P1;durP1;ratioP1;P2;durP2;ratioP2
44137;SDS011;29800;55.942;37.314;2023-04-06T00:02:21;7.50;;;5.10;;
44137;SDS011;29800;55.942;37.314;2023-04-06T00:04:47;8.48;;;5.70;;
44137;SDS011;29800;55.942;37.314;2023-04-06T00:07:13;10.23;;;5.20;;
44137;SDS011;29800;55.942;37.314;2023-04-06T00:09:40;9.45;;;5.50;;
44137;SDS011;29800;55.942;37.314;2023-04-06T00:12:06;8.43;;;5.57;;
44137;SDS011;29800;55.942;37.314;2023-04-06T00:14:32;9.48;;;5.80;;
44137;SDS011;29800;55.942;37.314;2023-04-06T00:16:59;8.98;;;5.50;;
44137;SDS011;29800;55.942;37.314;2023-04-06T00:19:25;8.65;;;6.07;;
44137;SDS011;29800;55.942;37.314;2023-04-06T00:21:51;8.48;;;5.93;;
44137;SDS011;29800;55.942;37.314;2023-04-06T00:24:18;10.27;;;5.88;;
44137;SDS011;29800;55.942;37.314;2023-04-06T00:26:44;11.10;;;5.50;;
44137;SDS011;29800;55.942;37.314;2023-04-06T00:29:10;9.68;;;6.50;;
44137;SDS011;29800;55.942;37.314;2023-04-06T00:31:37;8.70;;;6.45;;
44137;SDS011;29800;55.942;37.314;2023-04-06T00:34:03;9.52;;;6.15;;
44137;SDS011;29800;55.942;37.314;2023-04-06T00:36:30;10.27;;;6.05;;
44137;SDS011;29800;55.942;37.314;2023-04-06T00:38:56;8.13;;;5.93;;
44137;SDS011;29800;55.942;37.314;2023-04-06T00:41:22;9.30;;;6.07;;
44137;SDS011;29800;55.942;37.314;2023-04-06T00:43:49;9.18;;;5.57;;
44137;SDS011;29800;55.942;37.314;2023-04-06T00:46:15;10.73;;;6.25;;
44137;SDS011;29800;55.942;37.314;2023-04-06T00:48:41;10.77;;;5.95;;
44137;SDS011;29800;55.942;37.314;2023-04-06T00:51:08;9.13;;;5.88;;
44137;SDS011;29800;55.942;37.314;2023-04-06T00:53:34;8.48;;;5.68;;
44137;SDS011;29800;55.942;37.314;2023-04-06T00:56:01;9.70;;;5.82;;
44137;SDS011;29800;55.942;37.314;2023-04-06T00:58:33;7.95;;;6.30;;
44137;SDS011;29800;55.942;37.314;2023-04-06T01:01:06;9.48;;;6.30;;
44137;SDS011;29800;55.942;37.314;2023-04-06T01:03:34;10.20;;;6.53;;
44137;SDS011;29800;55.942;37.314;2023-04-06T01:06:01;10.43;;;6.90;;
44137;SDS011;29800;55.942;37.314;2023-04-06T01:08:34;10.52;;;6.20;;
44137;SDS011;29800;55.942;37.314;2023-04-06T01:11:18;8.57;;;6.72;;
44137;SDS011;29800;55.942;37.314;2023-04-06T01:13:46;8.55;;;5.95;;
44137;SDS011;29800;55.942;37.314;2023-04-06T01:16:35;10.40;;;6.90;;
44137;SDS011;29800;55.942;37.314;2023-04-06T01:19:11;8.23;;;6.13;;
44137;SDS011;29800;55.942;37.314;2023-04-06T01:21:42;9.05;;;6.43;;
44137;SDS011;29800;55.942;37.314;2023-04-06T01:24:18;9.77;;;6.75;;
44137;SDS011;29800;55.942;37.314;2023-04-06T01:27:02;10.25;;;6.47;;
44137;SDS011;29800;55.942;37.314;2023-04-06T01:29:58;11.13;;;5.95;;
44137;SDS011;29800;55.942;37.314;2023-04-06T01:32:51;8.38;;;6.32;;
44137;SDS011;29800;55.942;37.314;2023-04-06T01:35:30;8.77;;;6.57;;
44137;SDS011;29800;55.942;37.314;2023-04-06T01:38:17;7.53;;;5.28;;
44137;SDS011;29800;55.942;37.314;2023-04-06T01:40:45;9.15;;;5.57;;
44137;SDS011;29800;55.942;37.314;2023-04-06T01:43:11;8.50;;;5.55;;
44137;SDS011;29800;55.942;37.314;2023-04-06T01:45:54;8.18;;;5.78;;
44137;SDS011;29800;55.942;37.314;2023-04-06T01:48:22;11.88;;;5.90;;
44137;SDS011;29800;55.942;37.314;2023-04-06T01:50:49;8.95;;;6.03;;
44137;SDS011;29800;55.942;37.314;2023-04-06T01:53:22;6.63;;;5.15;;
44137;SDS011;29800;55.942;37.314;2023-04-06T01:55:50;17.75;;;5.82;;
44137;SDS011;29800;55.942;37.314;2023-04-06T01:58:24;10.80;;;6.47;;
44137;SDS011;29800;55.942;37.314;2023-04-06T02:00:51;8.77;;;5.38;;
44137;SDS011;29800;55.942;37.314;2023-04-06T02:03:17;8.10;;;5.00;;
44137;SDS011;29800;55.942;37.314;2023-04-06T02:05:45;8.05;;;5.53;;
44137;SDS011;29800;55.942;37.314;2023-04-06T02:08:25;8.20;;;5.57;;
44137;SDS011;29800;55.942;37.314;2023-04-06T02:10:52;7.47;;;4.93;;
44137;SDS011;29800;55.942;37.314;2023-04-06T02:13:29;6.93;;;4.82;;
44137;SDS011;29800;55.942;37.314;2023-04-06T02:15:56;7.25;;;5.68;;
44137;SDS011;29800;55.942;37.314;2023-04-06T02:18:22;8.18;;;5.45;;
44137;SDS011;29800;55.942;37.314;2023-04-06T02:20:49;10.38;;;5.20;;
44137;SDS011;29800;55.942;37.314;2023-04-06T02:23:15;7.57;;;5.20;;
44137;SDS011;29800;55.942;37.314;2023-04-06T02:25:41;12.13;;;5.28;;
44137;SDS011;29800;55.942;37.314;2023-04-06T02:28:08;7.13;;;4.80;;
44137;SDS011;29800;55.942;37.314;2023-04-06T02:30:34;6.38;;;4.45;;
44137;SDS011;29800;55.942;37.314;2023-04-06T02:33:01;8.23;;;5.03;;
44137;SDS011;29800;55.942;37.314;2023-04-06T02:35:32;7.47;;;4.85;;
44137;SDS011;29800;55.942;37.314;2023-04-06T02:37:59;7.18;;;4.97;;
44137;SDS011;29800;55.942;37.314;2023-04-06T02:40:25;8.82;;;4.93;;
44137;SDS011;29800;55.942;37.314;2023-04-06T02:42:51;7.55;;;4.47;;
44137;SDS011;29800;55.942;37.314;2023-04-06T02:45:26;6.88;;;4.50;;
44137;SDS011;29800;55.942;37.314;2023-04-06T02:47:53;5.88;;;4.25;;
44137;SDS011;29800;55.942;37.314;2023-04-06T02:50:20;7.90;;;4.63;;
44137;SDS011;29800;55.942;37.314;2023-04-06T02:52:56;7.10;;;4.57;;
44137;SDS011;29800;55.942;37.314;2023-04-06T02:55:23;6.88;;;4.45;;
44137;SDS011;29800;55.942;37.314;2023-04-06T02:57:49;9.07;;;4.90;;
44137;SDS011;29800;55.942;37.314;2023-04-06T03:00:19;8.25;;;4.97;;
44137;SDS011;29800;55.942;37.314;2023-04-06T03:02:45;8.88;;;5.45;;
44137;SDS011;29800;55.942;37.314;2023-04-06T03:05:14;8.02;;;5.05;;
44137;SDS011;29800;55.942;37.314;2023-04-06T03:07:43;11.75;;;6.07;;
44137;SDS011;29800;55.942;37.314;2023-04-06T03:10:20;7.65;;;5.30;;
44137;SDS011;29800;55.942;37.314;2023-04-06T03:12:48;8.05;;;5.45;;
44137;SDS011;29800;55.942;37.314;2023-04-06T03:15:18;8.50;;;5.22;;
44137;SDS011;29800;55.942;37.314;2023-04-06T03:17:49;8.60;;;4.90;;
44137;SDS011;29800;55.942;37.314;2023-04-06T03:20:33;10.05;;;5.80;;
44137;SDS011;29800;55.942;37.314;2023-04-06T03:23:00;10.10;;;5.00;;
44137;SDS011;29800;55.942;37.314;2023-04-06T03:25:29;7.15;;;5.32;;
44137;SDS011;29800;55.942;37.314;2023-04-06T03:28:00;6.70;;;4.80;;
44137;SDS011;29800;55.942;37.314;2023-04-06T03:30:27;8.65;;;5.55;;
44137;SDS011;29800;55.942;37.314;2023-04-06T03:32:55;7.30;;;4.65;;
44137;SDS011;29800;55.942;37.314;2023-04-06T03:35:25;8.98;;;4.90;;
44137;SDS011;29800;55.942;37.314;2023-04-06T03:37:51;5.75;;;4.50;;
44137;SDS011;29800;55.942;37.314;2023-04-06T03:40:17;6.88;;;4.63;;
44137;SDS011;29800;55.942;37.314;2023-04-06T03:42:45;7.22;;;4.68;;
44137;SDS011;29800;55.942;37.314;2023-04-06T03:45:14;7.22;;;4.80;;
44137;SDS011;29800;55.942;37.314;2023-04-06T03:47:46;8.57;;;5.13;;
44137;SDS011;29800;55.942;37.314;2023-04-06T03:50:13;8.20;;;4.70;;
44137;SDS011;29800;55.942;37.314;2023-04-06T03:52:39;6.97;;;4.78;;
44137;SDS011;29800;55.942;37.314;2023-04-06T03:55:06;8.65;;;4.60;;
44137;SDS011;29800;55.942;37.314;2023-04-06T03:57:35;7.80;;;5.10;;
44137;SDS011;29800;55.942;37.314;2023-04-06T04:00:03;7.00;;;4.60;;
44137;SDS011;29800;55.942;37.314;2023-04-06T04:02:38;8.18;;;5.35;;
44137;SDS011;29800;55.942;37.314;2023-04-06T04:05:05;11.35;;;4.78;;
44137;SDS011;29800;55.942;37.314;2023-04-06T04:07:31;7.68;;;4.70;;
44137;SDS011;29800;55.942;37.314;2023-04-06T04:09:59;7.35;;;4.50;;
44137;SDS011;29800;55.942;37.314;2023-04-06T04:12:25;6.93;;;4.40;;
44137;SDS011;29800;55.942;37.314;2023-04-06T04:14:52;7.15;;;4.43;;
44137;SDS011;29800;55.942;37.314;2023-04-06T04:17:18;7.03;;;4.45;;
44137;SDS011;29800;55.942;37.314;2023-04-06T04:19:44;6.05;;;3.80;;
44137;SDS011;29800;55.942;37.314;2023-04-06T04:22:13;7.88;;;4.55;;
44137;SDS011;29800;55.942;37.314;2023-04-06T04:24:41;5.88;;;4.18;;
44137;SDS011;29800;55.942;37.314;2023-04-06T04:27:08;8.10;;;4.47;;
44137;SDS011;29800;55.942;37.314;2023-04-06T04:29:34;6.03;;;3.90;;
44137;SDS011;29800;55.942;37.314;2023-04-06T04:32:05;6.00;;;3.88;;
44137;SDS011;29800;55.942;37.314;2023-04-06T04:34:32;5.68;;;3.88;;
44137;SDS011;29800;55.942;37.314;2023-04-06T04:36:59;5.43;;;3.55;;
44137;SDS011;29800;55.942;37.314;2023-04-06T04:39:40;6.68;;;3.67;;
44137;SDS011;29800;55.942;37.314;2023-04-06T04:42:07;6.10;;;3.70;;
44137;SDS011;29800;55.942;37.314;2023-04-06T04:44:37;10.88;;;3.70;;
44137;SDS011;29800;55.942;37.314;2023-04-06T04:47:04;5.55;;;3.38;;
44137;SDS011;29800;55.942;37.314;2023-04-06T04:49:40;6.18;;;3.88;;
44137;SDS011;29800;55.942;37.314;2023-04-06T04:52:06;7.25;;;3.60;;
44137;SDS011;29800;55.942;37.314;2023-04-06T04:54:44;7.45;;;3.85;;
44137;SDS011;29800;55.942;37.314;2023-04-06T04:57:20;6.32;;;4.10;;
44137;SDS011;29800;55.942;37.314;2023-04-06T04:59:47;6.55;;;3.80;;
44137;SDS011;29800;55.942;37.314;2023-04-06T05:02:17;7.20;;;3.88;;
44137;SDS011;29800;55.942;37.314;2023-04-06T05:04:59;5.95;;;3.90;;
44137;SDS011;29800;55.942;37.314;2023-04-06T05:07:28;5.43;;;3.28;;
44137;SDS011;29800;55.942;37.314;2023-04-06T05:09:57;5.65;;;4.18;;
44137;SDS011;29800;55.942;37.314;2023-04-06T05:12:29;7.00;;;3.83;;
44137;SDS011;29800;55.942;37.314;2023-04-06T05:15:06;6.25;;;3.80;;
44137;SDS011;29800;55.942;37.314;2023-04-06T05:17:35;6.65;;;3.63;;
44137;SDS011;29800;55.942;37.314;2023-04-06T05:20:02;7.10;;;3.85;;
44137;SDS011;29800;55.942;37.314;2023-04-06T05:22:34;6.05;;;3.15;;
44137;SDS011;29800;55.942;37.314;2023-04-06T05:25:05;6.38;;;3.90;;
44137;SDS011;29800;55.942;37.314;2023-04-06T05:27:32;6.28;;;3.60;;
44137;SDS011;29800;55.942;37.314;2023-04-06T05:30:04;5.53;;;3.70;;
44137;SDS011;29800;55.942;37.314;2023-04-06T05:32:37;7.10;;;3.50;;
44137;SDS011;29800;55.942;37.314;2023-04-06T05:35:04;5.43;;;3.33;;
44137;SDS011;29800;55.942;37.314;2023-04-06T05:37:31;5.20;;;3.65;;
44137;SDS011;29800;55.942;37.314;2023-04-06T05:39:59;7.47;;;3.85;;
44137;SDS011;29800;55.942;37.314;2023-04-06T05:42:26;5.47;;;3.58;;
44137;SDS011;29800;55.942;37.314;2023-04-06T05:44:56;8.00;;;3.88;;
44137;SDS011;29800;55.942;37.314;2023-04-06T05:47:22;5.60;;;2.95;;
44137;SDS011;29800;55.942;37.314;2023-04-06T05:49:56;5.68;;;3.75;;
44137;SDS011;29800;55.942;37.314;2023-04-06T05:52:31;5.40;;;3.03;;
44137;SDS011;29800;55.942;37.314;2023-04-06T05:54:58;5.28;;;3.50;;
44137;SDS011;29800;55.942;37.314;2023-04-06T05:57:25;6.03;;;3.42;;
44137;SDS011;29800;55.942;37.314;2023-04-06T05:59:52;10.38;;;3.25;;
44137;SDS011;29800;55.942;37.314;2023-04-06T06:02:19;8.95;;;3.42;;
44137;SDS011;29800;55.942;37.314;2023-04-06T06:04:49;7.93;;;3.63;;
44137;SDS011;29800;55.942;37.314;2023-04-06T06:07:17;5.78;;;3.40;;
44137;SDS011;29800;55.942;37.314;2023-04-06T06:10:03;5.75;;;3.50;;
44137;SDS011;29800;55.942;37.314;2023-04-06T06:12:34;6.72;;;3.38;;
44137;SDS011;29800;55.942;37.314;2023-04-06T06:15:01;6.63;;;3.45;;
44137;SDS011;29800;55.942;37.314;2023-04-06T06:17:29;5.38;;;3.50;;
44137;SDS011;29800;55.942;37.314;2023-04-06T06:19:56;5.72;;;3.30;;
44137;SDS011;29800;55.942;37.314;2023-04-06T06:22:22;5.40;;;3.22;;
44137;SDS011;29800;55.942;37.314;2023-04-06T06:24:49;8.52;;;3.55;;
44137;SDS011;29800;55.942;37.314;2023-04-06T06:27:18;5.00;;;3.20;;
44137;SDS011;29800;55.942;37.314;2023-04-06T06:29:46;7.43;;;3.08;;
44137;SDS011;29800;55.942;37.314;2023-04-06T06:32:12;5.28;;;2.92;;
44137;SDS011;29800;55.942;37.314;2023-04-06T06:34:41;6.82;;;3.00;;
44137;SDS011;29800;55.942;37.314;2023-04-06T06:37:08;4.35;;;2.85;;
44137;SDS011;29800;55.942;37.314;2023-04-06T06:39:37;5.47;;;3.00;;
44137;SDS011;29800;55.942;37.314;2023-04-06T06:42:03;6.85;;;3.22;;
44137;SDS011;29800;55.942;37.314;2023-04-06T06:44:52;4.35;;;3.05;;
44137;SDS011;29800;55.942;37.314;2023-04-06T06:47:20;6.80;;;3.08;;
44137;SDS011;29800;55.942;37.314;2023-04-06T06:49:46;9.98;;;3.35;;
44137;SDS011;29800;55.942;37.314;2023-04-06T06:52:12;5.10;;;3.20;;
44137;SDS011;29800;55.942;37.314;2023-04-06T06:54:38;6.53;;;3.10;;
44137;SDS011;29800;55.942;37.314;2023-04-06T06:57:04;8.63;;;3.22;;
44137;SDS011;29800;55.942;37.314;2023-04-06T06:59:31;7.60;;;3.17;;
44137;SDS011;29800;55.942;37.314;2023-04-06T07:01:59;7.60;;;3.72;;
44137;SDS011;29800;55.942;37.314;2023-04-06T07:04:25;8.63;;;3.00;;
44137;SDS011;29800;55.942;37.314;2023-04-06T07:06:51;6.35;;;3.50;;
44137;SDS011;29800;55.942;37.314;2023-04-06T07:09:18;5.97;;;3.50;;
44137;SDS011;29800;55.942;37.314;2023-04-06T07:11:44;6.30;;;3.13;;
44137;SDS011;29800;55.942;37.314;2023-04-06T07:14:11;5.85;;;3.33;;
44137;SDS011;29800;55.942;37.314;2023-04-06T07:16:37;5.07;;;2.75;;
44137;SDS011;29800;55.942;37.314;2023-04-06T07:19:04;8.68;;;4.28;;
44137;SDS011;29800;55.942;37.314;2023-04-06T07:21:30;7.97;;;3.00;;
44137;SDS011;29800;55.942;37.314;2023-04-06T07:23:56;5.82;;;3.08;;
44137;SDS011;29800;55.942;37.314;2023-04-06T07:26:23;5.05;;;2.90;;
44137;SDS011;29800;55.942;37.314;2023-04-06T07:28:49;5.68;;;2.90;;
44137;SDS011;29800;55.942;37.314;2023-04-06T07:31:16;5.63;;;3.05;;
44137;SDS011;29800;55.942;37.314;2023-04-06T07:33:43;4.68;;;3.22;;
44137;SDS011;29800;55.942;37.314;2023-04-06T07:36:10;5.25;;;2.63;;
44137;SDS011;29800;55.942;37.314;2023-04-06T07:38:36;7.65;;;2.83;;
44137;SDS011;29800;55.942;37.314;2023-04-06T07:41:03;6.90;;;3.08;;
44137;SDS011;29800;55.942;37.314;2023-04-06T07:43:30;7.63;;;3.50;;
44137;SDS011;29800;55.942;37.314;2023-04-06T07:45:57;5.07;;;2.70;;
44137;SDS011;29800;55.942;37.314;2023-04-06T07:48:25;5.80;;;2.60;;
44137;SDS011;29800;55.942;37.314;2023-04-06T07:50:52;6.28;;;2.63;;
44137;SDS011;29800;55.942;37.314;2023-04-06T07:53:30;5.20;;;2.67;;
44137;SDS011;29800;55.942;37.314;2023-04-06T07:55:58;5.00;;;2.42;;
44137;SDS011;29800;55.942;37.314;2023-04-06T07:58:24;8.10;;;2.75;;
44137;SDS011;29800;55.942;37.314;2023-04-06T08:00:51;8.30;;;2.70;;
44137;SDS011;29800;55.942;37.314;2023-04-06T08:03:17;5.43;;;2.40;;
44137;SDS011;29800;55.942;37.314;2023-04-06T08:05:46;8.00;;;2.45;;
44137;SDS011;29800;55.942;37.314;2023-04-06T08:08:12;3.30;;;1.75;;
44137;SDS011;29800;55.942;37.314;2023-04-06T08:10:38;4.13;;;2.13;;
44137;SDS011;29800;55.942;37.314;2023-04-06T08:13:05;7.07;;;2.38;;
44137;SDS011;29800;55.942;37.314;2023-04-06T08:15:31;5.45;;;2.20;;
44137;SDS011;29800;55.942;37.314;2023-04-06T08:17:58;6.68;;;2.30;;
44137;SDS011;29800;55.942;37.314;2023-04-06T08:20:24;7.40;;;2.40;;
44137;SDS011;29800;55.942;37.314;2023-04-06T08:22:50;4.72;;;2.30;;
44137;SDS011;29800;55.942;37.314;2023-04-06T08:25:17;7.65;;;2.63;;
44137;SDS011;29800;55.942;37.314;2023-04-06T08:27:43;3.90;;;2.28;;
44137;SDS011;29800;55.942;37.314;2023-04-06T08:30:09;6.30;;;2.35;;
44137;SDS011;29800;55.942;37.314;2023-04-06T08:32:36;5.80;;;2.70;;
44137;SDS011;29800;55.942;37.314;2023-04-06T08:35:02;8.40;;;2.80;;
44137;SDS011;29800;55.942;37.314;2023-04-06T08:37:29;4.65;;;2.38;;
44137;SDS011;29800;55.942;37.314;2023-04-06T08:39:55;6.75;;;2.67;;
44137;SDS011;29800;55.942;37.314;2023-04-06T08:42:24;5.90;;;2.25;;
44137;SDS011;29800;55.942;37.314;2023-04-06T08:44:52;6.05;;;2.25;;
44137;SDS011;29800;55.942;37.314;2023-04-06T08:47:19;5.22;;;2.22;;
44137;SDS011;29800;55.942;37.314;2023-04-06T08:49:47;6.43;;;2.22;;
44137;SDS011;29800;55.942;37.314;2023-04-06T08:52:15;4.38;;;2.25;;
44137;SDS011;29800;55.942;37.314;2023-04-06T08:54:46;5.05;;;1.85;;
44137;SDS011;29800;55.942;37.314;2023-04-06T08:57:13;4.50;;;2.45;;
44137;SDS011;29800;55.942;37.314;2023-04-06T08:59:40;5.85;;;2.20;;
44137;SDS011;29800;55.942;37.314;2023-04-06T09:02:07;7.53;;;2.00;;
44137;SDS011;29800;55.942;37.314;2023-04-06T09:04:42;5.25;;;2.08;;
44137;SDS011;29800;55.942;37.314;2023-04-06T09:07:10;5.65;;;2.28;;
44137;SDS011;29800;55.942;37.314;2023-04-06T09:09:37;5.60;;;1.90;;
44137;SDS011;29800;55.942;37.314;2023-04-06T09:12:09;7.97;;;2.00;;
44137;SDS011;29800;55.942;37.314;2023-04-06T09:14:38;6.50;;;1.90;;
44137;SDS011;29800;55.942;37.314;2023-04-06T09:17:05;5.15;;;1.77;;
44137;SDS011;29800;55.942;37.314;2023-04-06T09:19:31;5.97;;;1.77;;
44137;SDS011;29800;55.942;37.314;2023-04-06T09:22:04;6.45;;;1.85;;
44137;SDS011;29800;55.942;37.314;2023-04-06T09:24:42;9.05;;;1.90;;
44137;SDS011;29800;55.942;37.314;2023-04-06T09:27:13;5.93;;;1.80;;
44137;SDS011;29800;55.942;37.314;2023-04-06T09:29:41;9.93;;;1.85;;
44137;SDS011;29800;55.942;37.314;2023-04-06T09:32:08;8.05;;;2.00;;
44137;SDS011;29800;55.942;37.314;2023-04-06T09:34:42;5.80;;;1.77;;
44137;SDS011;29800;55.942;37.314;2023-04-06T09:37:15;9.57;;;1.90;;
44137;SDS011;29800;55.942;37.314;2023-04-06T09:39:42;4.65;;;2.13;;
44137;SDS011;29800;55.942;37.314;2023-04-06T09:42:08;9.35;;;2.10;;
44137;SDS011;29800;55.942;37.314;2023-04-06T09:44:35;5.40;;;2.00;;
44137;SDS011;29800;55.942;37.314;2023-04-06T09:47:01;8.57;;;1.77;;
44137;SDS011;29800;55.942;37.314;2023-04-06T09:49:33;4.93;;;1.67;;
44137;SDS011;29800;55.942;37.314;2023-04-06T09:52:04;9.48;;;1.75;;
44137;SDS011;29800;55.942;37.314;2023-04-06T09:54:32;4.38;;;1.83;;
44137;SDS011;29800;55.942;37.314;2023-04-06T09:57:09;5.40;;;1.83;;
44137;SDS011;29800;55.942;37.314;2023-04-06T10:02:55;10.85;;;2.10;;
44137;SDS011;29800;55.942;37.314;2023-04-06T10:05:25;8.30;;;1.95;;
44137;SDS011;29800;55.942;37.314;2023-04-06T10:07:59;4.88;;;1.55;;
44137;SDS011;29800;55.942;37.314;2023-04-06T10:10:30;6.93;;;1.90;;
44137;SDS011;29800;55.942;37.314;2023-04-06T10:12:57;3.90;;;1.55;;
44137;SDS011;29800;55.942;37.314;2023-04-06T10:15:24;6.70;;;1.70;;
44137;SDS011;29800;55.942;37.314;2023-04-06T10:17:51;10.70;;;1.92;;
44137;SDS011;29800;55.942;37.314;2023-04-06T10:20:21;3.92;;;1.80;;
44137;SDS011;29800;55.942;37.314;2023-04-06T10:22:59;8.10;;;2.08;;
44137;SDS011;29800;55.942;37.314;2023-04-06T10:25:32;9.43;;;2.20;;
44137;SDS011;29800;55.942;37.314;2023-04-06T10:28:06;8.55;;;2.35;;
44137;SDS011;29800;55.942;37.314;2023-04-06T10:30:34;10.95;;;2.10;;
44137;SDS011;29800;55.942;37.314;2023-04-06T10:33:17;7.82;;;2.30;;
44137;SDS011;29800;55.942;37.314;2023-04-06T10:35:46;8.27;;;2.05;;
44137;SDS011;29800;55.942;37.314;2023-04-06T10:38:12;4.63;;;1.80;;
44137;SDS011;29800;55.942;37.314;2023-04-06T10:40:46;12.88;;;2.00;;
44137;SDS011;29800;55.942;37.314;2023-04-06T10:43:22;3.58;;;1.75;;
44137;SDS011;29800;55.942;37.314;2023-04-06T10:45:56;11.07;;;2.00;;
44137;SDS011;29800;55.942;37.314;2023-04-06T10:48:23;4.97;;;1.98;;
44137;SDS011;29800;55.942;37.314;2023-04-06T10:50:51;7.20;;;2.00;;
44137;SDS011;29800;55.942;37.314;2023-04-06T10:53:25;9.60;;;2.22;;
44137;SDS011;29800;55.942;37.314;2023-04-06T10:55:55;8.35;;;2.20;;
44137;SDS011;29800;55.942;37.314;2023-04-06T10:58:26;4.40;;;1.80;;
44137;SDS011;29800;55.942;37.314;2023-04-06T11:00:53;6.72;;;2.17;;
44137;SDS011;29800;55.942;37.314;2023-04-06T11:03:21;7.28;;;1.70;;
44137;SDS011;29800;55.942;37.314;2023-04-06T11:05:49;7.18;;;2.28;;
44137;SDS011;29800;55.942;37.314;2023-04-06T11:08:32;5.88;;;1.75;;
44137;SDS011;29800;55.942;37.314;2023-04-06T11:13:42;5.88;;;1.65;;
44137;SDS011;29800;55.942;37.314;2023-04-06T11:16:15;7.45;;;2.08;;
44137;SDS011;29800;55.942;37.314;2023-04-06T11:21:19;9.23;;;2.30;;
44137;SDS011;29800;55.942;37.314;2023-04-06T11:26:53;5.07;;;1.60;;
44137;SDS011;29800;55.942;37.314;2023-04-06T11:29:24;8.32;;;2.13;;
44137;SDS011;29800;55.942;37.314;2023-04-06T11:31:53;5.75;;;1.75;;
44137;SDS011;29800;55.942;37.314;2023-04-06T11:34:32;6.05;;;1.70;;
44137;SDS011;29800;55.942;37.314;2023-04-06T11:37:03;7.97;;;1.95;;
44137;SDS011;29800;55.942;37.314;2023-04-06T11:39:37;6.32;;;1.98;;
44137;SDS011;29800;55.942;37.314;2023-04-06T11:42:06;3.25;;;1.88;;
44137;SDS011;29800;55.942;37.314;2023-04-06T11:44:33;10.27;;;2.42;;
44137;SDS011;29800;55.942;37.314;2023-04-06T11:49:36;6.60;;;1.70;;
44137;SDS011;29800;55.942;37.314;2023-04-06T11:52:14;4.70;;;1.42;;
44137;SDS011;29800;55.942;37.314;2023-04-06T11:54:45;9.05;;;2.45;;
44137;SDS011;29800;55.942;37.314;2023-04-06T11:57:12;4.32;;;2.00;;
44137;SDS011;29800;55.942;37.314;2023-04-06T11:59:40;5.60;;;1.88;;
44137;SDS011;29800;55.942;37.314;2023-04-06T12:02:06;3.35;;;1.60;;
44137;SDS011;29800;55.942;37.314;2023-04-06T12:04:33;8.60;;;2.25;;
44137;SDS011;29800;55.942;37.314;2023-04-06T12:07:00;10.70;;;2.10;;
44137;SDS011;29800;55.942;37.314;2023-04-06T12:09:26;7.97;;;2.00;;
44137;SDS011;29800;55.942;37.314;2023-04-06T12:11:53;9.02;;;3.30;;
44137;SDS011;29800;55.942;37.314;2023-04-06T12:14:20;14.00;;;2.97;;
44137;SDS011;29800;55.942;37.314;2023-04-06T12:16:46;6.85;;;2.50;;
44137;SDS011;29800;55.942;37.314;2023-04-06T12:19:12;3.70;;;1.80;;
44137;SDS011;29800;55.942;37.314;2023-04-06T12:21:39;4.88;;;1.70;;
44137;SDS011;29800;55.942;37.314;2023-04-06T12:24:06;4.78;;;1.70;;
44137;SDS011;29800;55.942;37.314;2023-04-06T12:26:32;5.63;;;1.70;;
44137;SDS011;29800;55.942;37.314;2023-04-06T12:28:59;7.70;;;1.75;;
44137;SDS011;29800;55.942;37.314;2023-04-06T12:31:35;13.90;;;5.85;;
44137;SDS011;29800;55.942;37.314;2023-04-06T12:34:02;10.20;;;4.10;;
44137;SDS011;29800;55.942;37.314;2023-04-06T12:36:29;5.85;;;2.50;;
44137;SDS011;29800;55.942;37.314;2023-04-06T12:38:55;3.47;;;1.58;;
44137;SDS011;29800;55.942;37.314;2023-04-06T12:41:22;3.85;;;1.60;;
44137;SDS011;29800;55.942;37.314;2023-04-06T12:43:49;7.53;;;1.73;;
44137;SDS011;29800;55.942;37.314;2023-04-06T12:46:17;4.20;;;1.98;;
44137;SDS011;29800;55.942;37.314;2023-04-06T12:48:43;4.55;;;1.95;;
44137;SDS011;29800;55.942;37.314;2023-04-06T12:51:10;12.48;;;4.75;;
44137;SDS011;29800;55.942;37.314;2023-04-06T12:53:36;6.25;;;2.60;;
44137;SDS011;29800;55.942;37.314;2023-04-06T12:56:09;5.55;;;2.30;;
44137;SDS011;29800;55.942;37.314;2023-04-06T12:58:38;6.97;;;2.28;;
44137;SDS011;29800;55.942;37.314;2023-04-06T13:01:06;9.63;;;2.30;;
44137;SDS011;29800;55.942;37.314;2023-04-06T13:03:33;10.05;;;2.58;;
44137;SDS011;29800;55.942;37.314;2023-04-06T13:06:00;7.40;;;2.80;;
44137;SDS011;29800;55.942;37.314;2023-04-06T13:08:27;4.88;;;1.95;;
44137;SDS011;29800;55.942;37.314;2023-04-06T13:10:53;6.45;;;2.08;;
44137;SDS011;29800;55.942;37.314;2023-04-06T13:13:24;5.60;;;1.70;;
44137;SDS011;29800;55.942;37.314;2023-04-06T13:15:54;8.30;;;4.78;;
44137;SDS011;29800;55.942;37.314;2023-04-06T13:18:24;16.75;;;9.80;;
44137;SDS011;29800;55.942;37.314;2023-04-06T13:20:51;9.57;;;3.55;;
44137;SDS011;29800;55.942;37.314;2023-04-06T13:23:18;14.13;;;5.90;;
44137;SDS011;29800;55.942;37.314;2023-04-06T13:25:44;8.50;;;4.38;;
44137;SDS011;29800;55.942;37.314;2023-04-06T13:28:10;4.88;;;2.00;;
44137;SDS011;29800;55.942;37.314;2023-04-06T13:30:37;5.88;;;1.30;;
44137;SDS011;29800;55.942;37.314;2023-04-06T13:33:03;4.30;;;1.65;;
44137;SDS011;29800;55.942;37.314;2023-04-06T13:35:32;4.00;;;1.33;;
44137;SDS011;29800;55.942;37.314;2023-04-06T13:37:58;5.82;;;1.85;;
44137;SDS011;29800;55.942;37.314;2023-04-06T13:40:25;4.40;;;1.38;;
44137;SDS011;29800;55.942;37.314;2023-04-06T13:42:51;6.13;;;1.65;;
44137;SDS011;29800;55.942;37.314;2023-04-06T13:45:18;5.82;;;1.30;;
44137;SDS011;29800;55.942;37.314;2023-04-06T13:47:44;4.22;;;1.67;;
44137;SDS011;29800;55.942;37.314;2023-04-06T13:50:10;8.63;;;2.30;;
44137;SDS011;29800;55.942;37.314;2023-04-06T13:52:37;4.55;;;1.90;;
44137;SDS011;29800;55.942;37.314;2023-04-06T13:55:03;23.60;;;9.90;;
44137;SDS011;29800;55.942;37.314;2023-04-06T13:57:31;9.05;;;3.50;;
44137;SDS011;29800;55.942;37.314;2023-04-06T13:59:58;3.17;;;1.58;;
44137;SDS011;29800;55.942;37.314;2023-04-06T14:02:24;4.55;;;1.33;;
44137;SDS011;29800;55.942;37.314;2023-04-06T14:04:53;3.58;;;1.10;;
44137;SDS011;29800;55.942;37.314;2023-04-06T14:07:20;3.35;;;1.30;;
44137;SDS011;29800;55.942;37.314;2023-04-06T14:09:47;6.22;;;1.83;;
44137;SDS011;29800;55.942;37.314;2023-04-06T14:12:13;4.35;;;1.70;;
44137;SDS011;29800;55.942;37.314;2023-04-06T14:14:40;3.95;;;1.83;;
44137;SDS011;29800;55.942;37.314;2023-04-06T14:17:06;5.82;;;1.90;;
44137;SDS011;29800;55.942;37.314;2023-04-06T14:19:32;3.00;;;1.40;;
44137;SDS011;29800;55.942;37.314;2023-04-06T14:21:59;3.33;;;1.65;;
44137;SDS011;29800;55.942;37.314;2023-04-06T14:24:26;4.10;;;1.20;;
44137;SDS011;29800;55.942;37.314;2023-04-06T14:26:52;4.45;;;1.33;;
44137;SDS011;29800;55.942;37.314;2023-04-06T14:29:19;1.88;;;1.00;;
44137;SDS011;29800;55.942;37.314;2023-04-06T14:31:47;3.28;;;0.90;;
44137;SDS011;29800;55.942;37.314;2023-04-06T14:34:14;2.55;;;0.90;;
44137;SDS011;29800;55.942;37.314;2023-04-06T14:36:41;3.42;;;1.10;;
44137;SDS011;29800;55.942;37.314;2023-04-06T14:39:07;2.13;;;1.05;;
44137;SDS011;29800;55.942;37.314;2023-04-06T14:41:35;3.13;;;1.10;;
44137;SDS011;29800;55.942;37.314;2023-04-06T14:44:01;3.78;;;0.95;;
44137;SDS011;29800;55.942;37.314;2023-04-06T14:46:28;5.72;;;1.10;;
44137;SDS011;29800;55.942;37.314;2023-04-06T14:48:55;5.75;;;1.20;;
44137;SDS011;29800;55.942;37.314;2023-04-06T14:51:23;3.95;;;1.10;;
44137;SDS011;29800;55.942;37.314;2023-04-06T14:53:51;5.72;;;1.50;;
44137;SDS011;29800;55.942;37.314;2023-04-06T14:56:23;7.53;;;1.40;;
44137;SDS011;29800;55.942;37.314;2023-04-06T14:58:51;6.47;;;1.45;;